createdAt,value
2022-12-12T00:00:00.123Z,90.6
2022-12-12T00:05:00.121Z,90.9
2022-12-12T00:10:00.121Z,90.9
2022-12-12T00:15:00.086Z,91
2022-12-12T00:20:00.130Z,91
2022-12-12T00:25:00.130Z,91
2022-12-12T00:30:00.109Z,91
2022-12-12T00:35:00.086Z,91
2022-12-12T00:40:00.141Z,91
2022-12-12T00:45:00.107Z,91
2022-12-12T00:50:00.078Z,91
2022-12-12T00:55:00.084Z,91
2022-12-12T01:00:00.204Z,91
2022-12-12T01:05:00.090Z,91
2022-12-12T01:10:00.120Z,91
2022-12-12T01:15:00.095Z,91
2022-12-12T01:20:00.115Z,91
2022-12-12T01:25:00.141Z,90.6
2022-12-12T01:30:00.090Z,91
2022-12-12T01:35:00.101Z,91
2022-12-12T01:40:00.120Z,90.9
2022-12-12T01:45:00.090Z,91
2022-12-12T01:50:00.113Z,90.9
2022-12-12T01:55:00.089Z,90.9
2022-12-12T02:00:00.130Z,90.9
2022-12-12T02:05:00.093Z,90.9
2022-12-12T02:10:00.089Z,90.9
2022-12-12T02:15:00.083Z,90.9
2022-12-12T02:20:00.126Z,90.9
2022-12-12T02:25:00.086Z,90.9
2022-12-12T02:30:00.116Z,90.9
2022-12-12T02:35:00.098Z,90.9
2022-12-12T02:40:00.164Z,90.9
2022-12-12T02:45:00.079Z,90.9
2022-12-12T02:50:00.084Z,90.9
2022-12-12T02:55:00.094Z,90.9
2022-12-12T03:00:00.116Z,91.8
2022-12-12T03:05:00.088Z,90.8
2022-12-12T03:10:00.091Z,90.8
2022-12-12T03:15:00.105Z,90.8
2022-12-12T03:20:00.146Z,90.8
2022-12-12T03:25:00.099Z,90.8
2022-12-12T03:30:00.098Z,90.8
2022-12-12T03:35:00.096Z,90.8
2022-12-12T03:40:00.123Z,90.8
2022-12-12T03:45:00.082Z,90.9
2022-12-12T03:50:00.082Z,90.7
2022-12-12T03:55:00.076Z,90.8
2022-12-12T04:00:00.154Z,90.8
2022-12-12T04:05:00.097Z,90.8
2022-12-12T04:10:00.086Z,90.8
2022-12-12T04:15:00.082Z,90.8
2022-12-12T04:20:00.155Z,90.8
2022-12-12T04:25:00.087Z,90.8
2022-12-12T04:30:00.104Z,90.8
2022-12-12T04:35:00.110Z,90.6
2022-12-12T04:40:00.220Z,90.8
2022-12-12T04:45:00.115Z,90.8
2022-12-12T04:50:00.089Z,90.8
2022-12-12T04:55:00.094Z,90.9
2022-12-12T05:00:00.130Z,90.9
2022-12-12T05:05:00.086Z,91.5
2022-12-12T05:10:00.088Z,90.8
2022-12-12T05:15:00.099Z,90.6
2022-12-12T05:20:00.148Z,90.5
2022-12-12T05:25:00.069Z,90.9
2022-12-12T05:30:00.087Z,90.8
2022-12-12T05:35:00.098Z,92.9
2022-12-12T05:40:00.105Z,90.9
2022-12-12T05:45:00.080Z,90.5
2022-12-12T05:50:00.085Z,90.9
2022-12-12T05:55:00.125Z,90.9
2022-12-12T06:00:00.183Z,90.9
2022-12-12T06:05:00.121Z,90.9
2022-12-12T06:10:00.072Z,90.7
2022-12-12T06:15:00.088Z,90.9
2022-12-12T06:20:00.108Z,90.9
2022-12-12T06:25:00.084Z,90.9
2022-12-12T06:30:00.117Z,90.9
2022-12-12T06:35:00.084Z,90.9
2022-12-12T06:40:00.159Z,90.9
2022-12-12T06:45:00.090Z,90.9
2022-12-12T06:50:00.083Z,90.9
2022-12-12T06:55:00.103Z,90.9
2022-12-12T07:00:00.131Z,90.9
2022-12-12T07:05:00.089Z,90.9
2022-12-12T07:10:00.127Z,90.9
2022-12-12T07:15:00.087Z,90.9
2022-12-12T07:20:00.130Z,91
2022-12-12T07:25:00.091Z,91
2022-12-12T07:30:00.109Z,91
2022-12-12T07:35:00.115Z,91
2022-12-12T07:40:00.111Z,91.1
2022-12-12T07:45:00.092Z,91.1
2022-12-12T07:50:00.088Z,91.2
2022-12-12T07:55:00.089Z,91.2
2022-12-12T08:00:00.115Z,91.2
2022-12-12T08:05:00.226Z,91.3
2022-12-12T08:10:00.107Z,91.6
2022-12-12T08:15:00.127Z,91.6
2022-12-12T08:20:00.146Z,91.5
2022-12-12T08:25:00.104Z,91.4
2022-12-12T08:30:00.106Z,91.5
2022-12-12T08:35:00.107Z,91.4
2022-12-12T08:40:00.320Z,91.5
2022-12-12T08:45:00.094Z,91.5
2022-12-12T08:50:00.149Z,91.6
2022-12-12T08:55:00.118Z,91.6
2022-12-12T09:00:00.127Z,91.6
2022-12-12T09:05:00.089Z,91.6
2022-12-12T09:10:00.107Z,91.5
2022-12-12T09:15:00.104Z,91.6
2022-12-12T09:20:00.129Z,91.6
2022-12-12T09:25:00.098Z,91.5
2022-12-12T09:30:00.107Z,91.6
2022-12-12T09:35:00.133Z,91.6
2022-12-12T09:40:00.202Z,91.6
2022-12-12T09:45:00.102Z,91.6
2022-12-12T09:50:00.096Z,91.6
2022-12-12T09:55:00.101Z,91.6
2022-12-12T10:00:00.173Z,91.6
2022-12-12T10:05:00.084Z,91.6
2022-12-12T10:10:00.102Z,91.5
2022-12-12T10:15:00.093Z,91.5
2022-12-12T10:20:00.138Z,91.5
2022-12-12T10:25:00.107Z,91.5
2022-12-12T10:30:00.098Z,91.5
2022-12-12T10:35:00.098Z,91.5
2022-12-12T10:40:00.188Z,91.5
2022-12-12T10:45:00.088Z,91.8
2022-12-12T10:50:00.088Z,91.5
2022-12-12T10:55:00.147Z,94.2
2022-12-12T11:00:00.130Z,94.5
2022-12-12T11:05:00.089Z,91.6
2022-12-12T11:10:02.032Z,91.4
2022-12-12T11:15:00.089Z,91.4
2022-12-12T11:20:00.171Z,91.4
2022-12-12T11:25:00.105Z,93.1
2022-12-12T11:30:00.119Z,91.2
2022-12-12T11:35:00.089Z,91.2
2022-12-12T11:40:00.123Z,91.6
2022-12-12T11:45:00.107Z,91.9
2022-12-12T11:50:00.128Z,91
2022-12-12T11:55:00.111Z,91
2022-12-12T12:00:00.131Z,90.9
2022-12-12T12:05:00.169Z,90.9
2022-12-12T12:10:00.101Z,90.7
2022-12-12T12:15:00.099Z,90.4
2022-12-12T12:20:00.185Z,90.3
2022-12-12T12:25:00.146Z,90.3
2022-12-12T12:30:00.128Z,90.3
2022-12-12T12:35:00.091Z,90.1
2022-12-12T12:40:00.137Z,89.7
2022-12-12T12:45:00.104Z,89.3
2022-12-12T12:50:00.107Z,89.3
2022-12-12T12:55:00.094Z,89
2022-12-12T13:00:00.169Z,88.7
2022-12-12T13:05:00.152Z,88.3
2022-12-12T13:10:00.088Z,88.3
2022-12-12T13:15:00.114Z,88.2
2022-12-12T13:20:00.227Z,87.8
2022-12-12T13:25:00.428Z,87.4
2022-12-12T13:30:00.132Z,86.4
2022-12-12T13:35:00.089Z,87.1
2022-12-12T13:40:00.197Z,86.9
2022-12-12T13:45:00.109Z,92.1
2022-12-12T13:50:00.102Z,86
2022-12-12T13:55:00.168Z,86
2022-12-12T14:00:00.160Z,85.8
2022-12-12T14:05:00.132Z,88.1
2022-12-12T14:10:00.107Z,87
2022-12-12T14:15:00.111Z,85.4
2022-12-12T14:20:00.132Z,85.5
2022-12-12T14:25:00.087Z,85.3
2022-12-12T14:35:07.385Z,85.3
2022-12-12T14:40:00.097Z,85.3
2022-12-12T14:45:00.117Z,85.3
2022-12-12T14:50:00.103Z,85.3
2022-12-12T14:55:00.210Z,85.3
2022-12-12T15:00:00.132Z,85.3
2022-12-12T15:05:04.326Z,85.3
2022-12-12T15:10:00.089Z,85.3
2022-12-12T15:15:00.121Z,85.3
2022-12-12T15:20:00.087Z,85.3
2022-12-12T15:25:00.078Z,85.3
2022-12-12T15:30:00.090Z,85.3
2022-12-12T15:35:00.113Z,85.3
2022-12-12T15:40:00.098Z,85.3
2022-12-12T15:45:00.073Z,85.3
2022-12-12T15:50:00.092Z,85.3
2022-12-12T15:55:05.231Z,85.3
2022-12-12T16:00:00.121Z,85.3
2022-12-12T16:05:00.098Z,85.3
2022-12-12T16:10:00.127Z,85.3
2022-12-12T16:15:00.306Z,85.3
2022-12-12T16:20:00.116Z,85.3
2022-12-12T16:25:00.117Z,85.3
2022-12-12T16:30:00.108Z,85.3
2022-12-12T16:35:00.130Z,85.3
2022-12-12T16:40:00.150Z,85.3
2022-12-12T16:45:00.115Z,85.3
2022-12-12T16:50:00.189Z,85.3
2022-12-12T16:55:00.153Z,85.3
2022-12-12T17:00:00.286Z,85.3
2022-12-12T17:05:00.110Z,85.3
2022-12-12T17:10:00.081Z,85.3
2022-12-12T17:15:00.116Z,85.3
2022-12-12T17:20:00.081Z,85.3
2022-12-12T17:25:00.090Z,85.3
2022-12-12T17:30:00.253Z,85.3
2022-12-12T17:35:00.101Z,85.3
2022-12-12T17:40:00.106Z,85.3
2022-12-12T17:45:00.095Z,85.3
2022-12-12T17:50:00.098Z,85.3
2022-12-12T17:55:52.798Z,85.3
2022-12-12T18:00:00.119Z,85.3
2022-12-12T18:05:00.106Z,85.3
2022-12-12T18:10:00.088Z,85.3
2022-12-12T18:15:00.124Z,85.3
2022-12-12T18:20:00.080Z,85.3
2022-12-12T18:25:00.153Z,85.3
2022-12-12T18:30:00.106Z,85.3
2022-12-12T18:35:00.113Z,85.3
2022-12-12T18:40:00.068Z,85.3
2022-12-12T18:45:00.079Z,85.3
2022-12-12T18:50:00.086Z,85.3
2022-12-12T18:55:00.121Z,85.3
2022-12-12T19:00:00.102Z,85.3
2022-12-12T19:05:00.104Z,85.3
2022-12-12T19:10:00.101Z,85.3
2022-12-12T19:15:16.122Z,85.3
2022-12-12T19:20:00.084Z,85.3
2022-12-12T19:25:00.073Z,85.3
2022-12-12T19:30:00.135Z,85.3
2022-12-12T19:35:00.111Z,85.3
2022-12-12T19:40:00.100Z,85.3
2022-12-12T19:45:00.095Z,85.3
2022-12-12T19:50:00.135Z,85.3
2022-12-12T19:55:00.105Z,85.3
2022-12-12T20:00:00.083Z,85.3
2022-12-12T20:05:00.116Z,85.3
2022-12-12T20:10:00.075Z,85.3
2022-12-12T20:15:00.139Z,85.3
2022-12-12T20:20:00.113Z,85.3
2022-12-12T20:25:00.087Z,85.3
2022-12-12T20:30:00.092Z,85.3
2022-12-12T20:35:00.099Z,85.3
2022-12-12T20:40:00.072Z,85.3
2022-12-12T20:45:00.079Z,85.3
2022-12-12T20:50:00.070Z,85.3
2022-12-12T20:55:00.128Z,85.3
2022-12-12T21:00:00.108Z,85.3
2022-12-12T21:05:00.081Z,85.3
2022-12-12T21:10:00.125Z,85.3
2022-12-12T21:15:02.843Z,85.3
2022-12-12T21:20:04.754Z,85.3
2022-12-12T21:25:00.096Z,85.3
2022-12-12T21:30:00.116Z,85.3
2022-12-12T21:35:00.138Z,85.3
2022-12-12T21:40:00.106Z,85.3
2022-12-12T21:45:00.131Z,85.3
2022-12-12T21:50:00.088Z,85.3
2022-12-12T21:55:00.134Z,85.3
2022-12-12T22:00:00.156Z,85.3
2022-12-12T22:05:00.097Z,85.3
2022-12-12T22:10:10.231Z,85.3
2022-12-12T22:15:00.109Z,85.3
2022-12-12T22:20:00.121Z,85.3
2022-12-12T22:25:00.087Z,85.3
2022-12-12T22:30:00.109Z,85.3
2022-12-12T22:35:00.133Z,85.3
2022-12-12T22:40:00.083Z,85.3
2022-12-12T22:45:00.091Z,85.3
2022-12-12T22:50:00.120Z,85.3
2022-12-12T22:55:00.115Z,85.3
2022-12-12T23:00:00.129Z,85.3
2022-12-12T23:05:00.222Z,85.3
2022-12-12T23:10:00.087Z,85.3
2022-12-12T23:15:00.143Z,85.3
2022-12-12T23:20:00.102Z,85.3
2022-12-12T23:25:00.091Z,85.3
2022-12-12T23:30:00.079Z,85.3
2022-12-12T23:35:00.100Z,85.3
2022-12-12T23:40:00.093Z,85.3
2022-12-12T23:45:00.109Z,85.3
2022-12-12T23:50:00.091Z,85.3
2022-12-12T23:55:00.105Z,85.3
